首页
METAR-TAF:

METAR-TAF

机场 :

Abraham Lincoln Capital Airport

斯普林菲尔德, 伊利诺伊州, 美国

纬度: 39-50-43N, 经度: 089-41-02W, 海拔: 182米

当前天气观测

该预报发布于1小时和5分钟前的19:52 UTC
风速9节,风向东转东南
温度 8°C
湿度 53%
气压 1015 hPa
能見度: 16.1公里
阴天层高于8000英尺

METAR: KSPI 261952Z 12009KT 10SM OVC080 08/M01 A2997 RMK AO2 SLP152 T00831006

时间: 14:57 (20:57 UTC)

预报

该预报发布于3小时和24分钟前的17:33 UTC
预报有效从26日的 18点(UTC)到 27日的 18点(UTC)
风速12节,风向东南,有时为18节阵风
能見度: 10公里
少量云层高于25000英尺
从 26日的 2200点(UTC)
风速7节,风向东南
能見度: 10公里
多云层高于6000英尺
从 27日的 0100点(UTC)
风速8节,风向
能見度: 10公里
多云层高于2000英尺
阴天层高于4000英尺
附近有阵雨
从 27日的 0500点(UTC)
风速8节,风向南转西南
能見度: 8.0公里
多云层高于700英尺
阴天层高于2000英尺
小雨, 轻雾
从 27日的 0800点(UTC)
风速6节,风向西转西南
能見度: 10公里
多云层高于700英尺
从 27日的 1600点(UTC)
风速5节,风向西南
能見度: 10公里
少量云层高于25000英尺

TAF: KSPI 261733Z 2618/2718 13012G18KT P6SM FEW250 FM262200 14007KT P6SM BKN060 FM270100 18008KT P6SM VCSH BKN020 OVC040 FM270500 20008KT 5SM -RA BR BKN007 OVC020 FM270800 24006KT P6SM BKN007 FM271600 23005KT P6SM FEW250

超过4000个机场的气象观测和天气预报(METAR&TAF报告)。

可查询的气象台以黄色和红色小点在地图上表示。

将鼠标移到小点上方,可查看气象台名称。

然后点击查看天气观测和预报。

如需切换地图:点击带黑十字的绿色按钮放大地图;点击带横线的绿色按钮缩小地图;或者点击绿色箭头查看邻近地区的地图。


METAR-TAF: